sensor_id;sensor_type;location;lat;lon;timestamp;P1;durP1;ratioP1;P2;durP2;ratioP2
51236;SDS011;37312;47.550;18.818;2022-09-03T00:02:44;6.45;;;5.90;;
51236;SDS011;37312;47.550;18.818;2022-09-03T00:05:33;5.78;;;5.28;;
51236;SDS011;37312;47.550;18.818;2022-09-03T00:08:35;5.80;;;5.30;;
51236;SDS011;37312;47.550;18.818;2022-09-03T00:11:19;7.18;;;5.30;;
51236;SDS011;37312;47.550;18.818;2022-09-03T00:13:51;6.43;;;5.70;;
51236;SDS011;37312;47.550;18.818;2022-09-03T00:16:24;7.00;;;6.30;;
51236;SDS011;37312;47.550;18.818;2022-09-03T00:18:57;6.80;;;6.20;;
51236;SDS011;37312;47.550;18.818;2022-09-03T00:21:37;7.43;;;5.37;;
51236;SDS011;37312;47.550;18.818;2022-09-03T00:24:10;8.40;;;5.25;;
51236;SDS011;37312;47.550;18.818;2022-09-03T00:26:39;6.57;;;5.65;;
51236;SDS011;37312;47.550;18.818;2022-09-03T00:31:45;6.12;;;5.60;;
51236;SDS011;37312;47.550;18.818;2022-09-03T00:36:51;5.43;;;4.93;;
51236;SDS011;37312;47.550;18.818;2022-09-03T00:39:18;6.03;;;5.53;;
51236;SDS011;37312;47.550;18.818;2022-09-03T00:42:26;6.82;;;4.95;;
51236;SDS011;37312;47.550;18.818;2022-09-03T00:45:09;9.20;;;5.10;;
51236;SDS011;37312;47.550;18.818;2022-09-03T00:48:10;6.10;;;5.50;;
51236;SDS011;37312;47.550;18.818;2022-09-03T00:53:25;4.87;;;4.47;;
51236;SDS011;37312;47.550;18.818;2022-09-03T00:58:32;7.60;;;5.50;;
51236;SDS011;37312;47.550;18.818;2022-09-03T01:04:27;5.43;;;4.93;;
51236;SDS011;37312;47.550;18.818;2022-09-03T01:15:51;8.95;;;5.25;;
51236;SDS011;37312;47.550;18.818;2022-09-03T01:24:02;6.37;;;4.97;;
51236;SDS011;37312;47.550;18.818;2022-09-03T01:32:26;6.07;;;5.47;;
51236;SDS011;37312;47.550;18.818;2022-09-03T01:40:16;6.28;;;5.68;;
51236;SDS011;37312;47.550;18.818;2022-09-03T01:50:45;5.90;;;5.32;;
51236;SDS011;37312;47.550;18.818;2022-09-03T01:58:55;8.63;;;5.55;;
51236;SDS011;37312;47.550;18.818;2022-09-03T02:01:36;5.43;;;4.95;;
51236;SDS011;37312;47.550;18.818;2022-09-03T02:04:20;6.93;;;5.75;;
51236;SDS011;37312;47.550;18.818;2022-09-03T02:06:49;5.87;;;5.37;;
51236;SDS011;37312;47.550;18.818;2022-09-03T02:09:16;6.22;;;5.55;;
51236;SDS011;37312;47.550;18.818;2022-09-03T02:11:44;6.95;;;6.40;;
51236;SDS011;37312;47.550;18.818;2022-09-03T02:14:15;6.80;;;5.65;;
51236;SDS011;37312;47.550;18.818;2022-09-03T02:16:41;6.20;;;5.25;;
51236;SDS011;37312;47.550;18.818;2022-09-03T02:19:10;6.37;;;5.78;;
51236;SDS011;37312;47.550;18.818;2022-09-03T02:21:41;6.60;;;5.90;;
51236;SDS011;37312;47.550;18.818;2022-09-03T02:24:12;5.80;;;5.10;;
51236;SDS011;37312;47.550;18.818;2022-09-03T02:29:04;6.90;;;6.25;;
51236;SDS011;37312;47.550;18.818;2022-09-03T02:33:56;9.65;;;5.50;;
51236;SDS011;37312;47.550;18.818;2022-09-03T02:36:39;2.53;;;2.30;;
51236;SDS011;37312;47.550;18.818;2022-09-03T02:39:07;6.87;;;6.25;;
51236;SDS011;37312;47.550;18.818;2022-09-03T02:41:33;6.82;;;5.57;;
51236;SDS011;37312;47.550;18.818;2022-09-03T02:46:39;7.15;;;6.45;;
51236;SDS011;37312;47.550;18.818;2022-09-03T02:49:08;7.87;;;6.87;;
51236;SDS011;37312;47.550;18.818;2022-09-03T02:51:35;10.30;;;6.65;;
51236;SDS011;37312;47.550;18.818;2022-09-03T02:54:03;8.18;;;6.50;;
51236;SDS011;37312;47.550;18.818;2022-09-03T02:56:29;8.02;;;7.32;;
51236;SDS011;37312;47.550;18.818;2022-09-03T02:58:55;8.13;;;6.43;;
51236;SDS011;37312;47.550;18.818;2022-09-03T03:03:48;3.40;;;2.72;;
51236;SDS011;37312;47.550;18.818;2022-09-03T03:06:14;7.22;;;6.50;;
51236;SDS011;37312;47.550;18.818;2022-09-03T03:11:07;2.58;;;2.37;;
51236;SDS011;37312;47.550;18.818;2022-09-03T03:13:33;8.48;;;6.03;;
51236;SDS011;37312;47.550;18.818;2022-09-03T03:16:00;8.77;;;7.90;;
51236;SDS011;37312;47.550;18.818;2022-09-03T03:18:27;9.93;;;7.78;;
51236;SDS011;37312;47.550;18.818;2022-09-03T03:20:54;7.28;;;6.62;;
51236;SDS011;37312;47.550;18.818;2022-09-03T03:23:20;9.38;;;8.43;;
51236;SDS011;37312;47.550;18.818;2022-09-03T03:25:46;9.65;;;8.63;;
51236;SDS011;37312;47.550;18.818;2022-09-03T03:30:38;9.88;;;8.30;;
51236;SDS011;37312;47.550;18.818;2022-09-03T03:33:07;8.80;;;7.85;;
51236;SDS011;37312;47.550;18.818;2022-09-03T03:35:34;11.57;;;9.63;;
51236;SDS011;37312;47.550;18.818;2022-09-03T03:38:01;10.52;;;9.18;;
51236;SDS011;37312;47.550;18.818;2022-09-03T03:42:53;9.93;;;8.95;;
51236;SDS011;37312;47.550;18.818;2022-09-03T03:45:19;10.65;;;9.65;;
51236;SDS011;37312;47.550;18.818;2022-09-03T03:47:45;10.35;;;9.40;;
51236;SDS011;37312;47.550;18.818;2022-09-03T03:50:11;10.27;;;9.27;;
51236;SDS011;37312;47.550;18.818;2022-09-03T03:52:37;10.35;;;8.95;;
51236;SDS011;37312;47.550;18.818;2022-09-03T03:55:03;10.35;;;9.23;;
51236;SDS011;37312;47.550;18.818;2022-09-03T03:57:29;12.15;;;9.10;;
51236;SDS011;37312;47.550;18.818;2022-09-03T03:59:56;6.47;;;4.22;;
51236;SDS011;37312;47.550;18.818;2022-09-03T04:02:22;14.40;;;12.70;;
51236;SDS011;37312;47.550;18.818;2022-09-03T04:04:48;13.90;;;12.48;;
51236;SDS011;37312;47.550;18.818;2022-09-03T04:07:14;12.45;;;11.10;;
51236;SDS011;37312;47.550;18.818;2022-09-03T04:09:40;12.93;;;11.73;;
51236;SDS011;37312;47.550;18.818;2022-09-03T04:12:06;13.30;;;12.00;;
51236;SDS011;37312;47.550;18.818;2022-09-03T04:14:33;12.20;;;11.12;;
51236;SDS011;37312;47.550;18.818;2022-09-03T04:17:03;13.15;;;11.63;;
51236;SDS011;37312;47.550;18.818;2022-09-03T04:19:29;11.57;;;10.63;;
51236;SDS011;37312;47.550;18.818;2022-09-03T04:21:55;13.32;;;11.95;;
51236;SDS011;37312;47.550;18.818;2022-09-03T04:24:21;13.80;;;12.43;;
51236;SDS011;37312;47.550;18.818;2022-09-03T04:26:49;12.20;;;11.10;;
51236;SDS011;37312;47.550;18.818;2022-09-03T04:29:15;11.27;;;10.25;;
51236;SDS011;37312;47.550;18.818;2022-09-03T04:31:42;11.52;;;10.02;;
51236;SDS011;37312;47.550;18.818;2022-09-03T04:34:28;11.77;;;10.80;;
51236;SDS011;37312;47.550;18.818;2022-09-03T04:36:54;16.27;;;11.27;;
51236;SDS011;37312;47.550;18.818;2022-09-03T04:39:22;11.30;;;10.20;;
51236;SDS011;37312;47.550;18.818;2022-09-03T04:41:48;11.63;;;10.43;;
51236;SDS011;37312;47.550;18.818;2022-09-03T04:44:14;12.20;;;10.52;;
51236;SDS011;37312;47.550;18.818;2022-09-03T04:46:40;7.45;;;3.10;;
51236;SDS011;37312;47.550;18.818;2022-09-03T04:49:06;10.52;;;9.52;;
51236;SDS011;37312;47.550;18.818;2022-09-03T04:51:33;11.05;;;9.88;;
51236;SDS011;37312;47.550;18.818;2022-09-03T04:54:00;11.85;;;10.20;;
51236;SDS011;37312;47.550;18.818;2022-09-03T04:58:54;10.75;;;9.38;;
51236;SDS011;37312;47.550;18.818;2022-09-03T05:01:22;9.88;;;8.88;;
51236;SDS011;37312;47.550;18.818;2022-09-03T05:03:49;9.75;;;7.95;;
51236;SDS011;37312;47.550;18.818;2022-09-03T05:06:19;8.60;;;7.35;;
51236;SDS011;37312;47.550;18.818;2022-09-03T05:08:49;7.95;;;7.18;;
51236;SDS011;37312;47.550;18.818;2022-09-03T05:11:16;8.80;;;6.95;;
51236;SDS011;37312;47.550;18.818;2022-09-03T05:13:45;7.03;;;6.25;;
51236;SDS011;37312;47.550;18.818;2022-09-03T05:16:15;6.30;;;5.75;;
51236;SDS011;37312;47.550;18.818;2022-09-03T05:18:43;6.18;;;5.37;;
51236;SDS011;37312;47.550;18.818;2022-09-03T05:21:10;7.25;;;4.72;;
51236;SDS011;37312;47.550;18.818;2022-09-03T05:23:41;11.77;;;5.32;;
51236;SDS011;37312;47.550;18.818;2022-09-03T05:26:09;6.20;;;4.95;;
51236;SDS011;37312;47.550;18.818;2022-09-03T05:28:37;6.93;;;4.32;;
51236;SDS011;37312;47.550;18.818;2022-09-03T05:31:09;4.30;;;3.90;;
51236;SDS011;37312;47.550;18.818;2022-09-03T05:33:43;3.80;;;3.50;;
51236;SDS011;37312;47.550;18.818;2022-09-03T05:36:15;3.25;;;2.95;;
51236;SDS011;37312;47.550;18.818;2022-09-03T05:38:43;5.35;;;3.37;;
51236;SDS011;37312;47.550;18.818;2022-09-03T05:41:11;3.03;;;2.83;;
51236;SDS011;37312;47.550;18.818;2022-09-03T05:43:38;3.92;;;3.10;;
51236;SDS011;37312;47.550;18.818;2022-09-03T05:46:05;3.17;;;2.95;;
51236;SDS011;37312;47.550;18.818;2022-09-03T05:48:34;3.70;;;3.35;;
51236;SDS011;37312;47.550;18.818;2022-09-03T05:51:08;3.25;;;2.80;;
51236;SDS011;37312;47.550;18.818;2022-09-03T05:53:37;3.50;;;2.95;;
51236;SDS011;37312;47.550;18.818;2022-09-03T05:56:05;3.60;;;3.05;;
51236;SDS011;37312;47.550;18.818;2022-09-03T05:58:36;3.58;;;3.08;;
51236;SDS011;37312;47.550;18.818;2022-09-03T06:03:41;3.22;;;2.83;;
51236;SDS011;37312;47.550;18.818;2022-09-03T06:06:08;3.92;;;3.35;;
51236;SDS011;37312;47.550;18.818;2022-09-03T06:08:35;9.75;;;4.47;;
51236;SDS011;37312;47.550;18.818;2022-09-03T06:11:04;6.72;;;3.72;;
51236;SDS011;37312;47.550;18.818;2022-09-03T06:13:31;3.40;;;3.10;;
51236;SDS011;37312;47.550;18.818;2022-09-03T06:15:59;3.92;;;3.47;;
51236;SDS011;37312;47.550;18.818;2022-09-03T06:18:27;6.00;;;4.53;;
51236;SDS011;37312;47.550;18.818;2022-09-03T06:21:01;3.53;;;3.25;;
51236;SDS011;37312;47.550;18.818;2022-09-03T06:23:29;4.32;;;3.72;;
51236;SDS011;37312;47.550;18.818;2022-09-03T06:26:09;3.45;;;3.03;;
51236;SDS011;37312;47.550;18.818;2022-09-03T06:28:38;3.08;;;2.83;;
51236;SDS011;37312;47.550;18.818;2022-09-03T06:31:07;3.65;;;3.33;;
51236;SDS011;37312;47.550;18.818;2022-09-03T06:33:35;5.25;;;2.90;;
51236;SDS011;37312;47.550;18.818;2022-09-03T06:36:03;4.30;;;3.25;;
51236;SDS011;37312;47.550;18.818;2022-09-03T06:38:32;3.67;;;3.30;;
51236;SDS011;37312;47.550;18.818;2022-09-03T06:41:01;5.15;;;3.10;;
51236;SDS011;37312;47.550;18.818;2022-09-03T06:43:29;4.32;;;2.78;;
51236;SDS011;37312;47.550;18.818;2022-09-03T06:45:58;3.62;;;3.33;;
51236;SDS011;37312;47.550;18.818;2022-09-03T06:48:26;3.22;;;2.75;;
51236;SDS011;37312;47.550;18.818;2022-09-03T06:51:00;4.90;;;3.47;;
51236;SDS011;37312;47.550;18.818;2022-09-03T06:53:28;3.42;;;2.85;;
51236;SDS011;37312;47.550;18.818;2022-09-03T06:55:56;3.65;;;3.12;;
51236;SDS011;37312;47.550;18.818;2022-09-03T06:58:24;6.18;;;2.78;;
51236;SDS011;37312;47.550;18.818;2022-09-03T07:00:53;5.30;;;3.25;;
51236;SDS011;37312;47.550;18.818;2022-09-03T07:03:25;4.85;;;3.05;;
51236;SDS011;37312;47.550;18.818;2022-09-03T07:05:51;3.90;;;3.60;;
51236;SDS011;37312;47.550;18.818;2022-09-03T07:08:17;4.93;;;3.67;;
51236;SDS011;37312;47.550;18.818;2022-09-03T07:10:45;5.60;;;4.10;;
51236;SDS011;37312;47.550;18.818;2022-09-03T07:13:12;6.12;;;4.50;;
51236;SDS011;37312;47.550;18.818;2022-09-03T07:15:38;4.07;;;3.65;;
51236;SDS011;37312;47.550;18.818;2022-09-03T07:18:05;4.37;;;3.97;;
51236;SDS011;37312;47.550;18.818;2022-09-03T07:20:34;4.57;;;4.03;;
51236;SDS011;37312;47.550;18.818;2022-09-03T07:23:00;6.05;;;5.05;;
51236;SDS011;37312;47.550;18.818;2022-09-03T07:25:26;7.43;;;4.03;;
51236;SDS011;37312;47.550;18.818;2022-09-03T07:27:53;5.60;;;4.97;;
51236;SDS011;37312;47.550;18.818;2022-09-03T07:30:19;3.85;;;3.42;;
51236;SDS011;37312;47.550;18.818;2022-09-03T07:32:45;3.90;;;3.60;;
51236;SDS011;37312;47.550;18.818;2022-09-03T07:35:12;7.20;;;4.80;;
51236;SDS011;37312;47.550;18.818;2022-09-03T07:37:41;4.15;;;3.80;;
51236;SDS011;37312;47.550;18.818;2022-09-03T07:40:08;4.85;;;4.35;;
51236;SDS011;37312;47.550;18.818;2022-09-03T07:42:38;4.60;;;4.15;;
51236;SDS011;37312;47.550;18.818;2022-09-03T07:45:05;5.95;;;4.50;;
51236;SDS011;37312;47.550;18.818;2022-09-03T07:47:35;3.90;;;3.53;;
51236;SDS011;37312;47.550;18.818;2022-09-03T07:50:02;4.47;;;4.07;;
51236;SDS011;37312;47.550;18.818;2022-09-03T07:52:29;4.20;;;3.80;;
51236;SDS011;37312;47.550;18.818;2022-09-03T07:54:57;5.03;;;3.30;;
51236;SDS011;37312;47.550;18.818;2022-09-03T07:57:23;3.70;;;3.40;;
51236;SDS011;37312;47.550;18.818;2022-09-03T07:59:49;3.65;;;3.08;;
51236;SDS011;37312;47.550;18.818;2022-09-03T08:02:15;3.67;;;3.37;;
51236;SDS011;37312;47.550;18.818;2022-09-03T08:04:41;6.97;;;4.07;;
51236;SDS011;37312;47.550;18.818;2022-09-03T08:07:08;5.05;;;3.92;;
51236;SDS011;37312;47.550;18.818;2022-09-03T08:09:33;3.53;;;3.22;;
51236;SDS011;37312;47.550;18.818;2022-09-03T08:11:59;4.12;;;3.37;;
51236;SDS011;37312;47.550;18.818;2022-09-03T08:14:25;6.10;;;3.28;;
51236;SDS011;37312;47.550;18.818;2022-09-03T08:16:54;3.97;;;3.45;;
51236;SDS011;37312;47.550;18.818;2022-09-03T08:19:20;3.72;;;3.37;;
51236;SDS011;37312;47.550;18.818;2022-09-03T08:21:47;6.35;;;3.10;;
51236;SDS011;37312;47.550;18.818;2022-09-03T08:24:14;8.50;;;3.12;;
51236;SDS011;37312;47.550;18.818;2022-09-03T08:26:42;3.87;;;3.53;;
51236;SDS011;37312;47.550;18.818;2022-09-03T08:29:08;7.55;;;3.15;;
51236;SDS011;37312;47.550;18.818;2022-09-03T08:31:35;2.45;;;2.30;;
51236;SDS011;37312;47.550;18.818;2022-09-03T08:34:02;3.78;;;3.45;;
51236;SDS011;37312;47.550;18.818;2022-09-03T08:36:35;3.40;;;3.10;;
51236;SDS011;37312;47.550;18.818;2022-09-03T08:39:03;6.62;;;3.25;;
51236;SDS011;37312;47.550;18.818;2022-09-03T08:50:03;4.43;;;3.37;;
51236;SDS011;37312;47.550;18.818;2022-09-03T08:55:33;3.97;;;3.60;;
51236;SDS011;37312;47.550;18.818;2022-09-03T08:58:14;3.72;;;3.40;;
51236;SDS011;37312;47.550;18.818;2022-09-03T09:03:41;4.80;;;2.85;;
51236;SDS011;37312;47.550;18.818;2022-09-03T09:17:48;2.92;;;2.72;;
51236;SDS011;37312;47.550;18.818;2022-09-03T09:23:08;3.87;;;3.58;;
51236;SDS011;37312;47.550;18.818;2022-09-03T09:25:48;3.20;;;2.62;;
51236;SDS011;37312;47.550;18.818;2022-09-03T09:28:16;4.12;;;3.53;;
51236;SDS011;37312;47.550;18.818;2022-09-03T09:30:45;3.08;;;2.70;;
51236;SDS011;37312;47.550;18.818;2022-09-03T09:33:15;3.28;;;2.53;;
51236;SDS011;37312;47.550;18.818;2022-09-03T09:35:43;2.95;;;2.67;;
51236;SDS011;37312;47.550;18.818;2022-09-03T09:38:10;3.87;;;2.50;;
51236;SDS011;37312;47.550;18.818;2022-09-03T09:40:38;2.78;;;2.58;;
51236;SDS011;37312;47.550;18.818;2022-09-03T09:43:09;3.92;;;2.33;;
51236;SDS011;37312;47.550;18.818;2022-09-03T09:45:41;2.87;;;2.53;;
51236;SDS011;37312;47.550;18.818;2022-09-03T09:48:22;3.08;;;2.87;;
51236;SDS011;37312;47.550;18.818;2022-09-03T09:51:02;2.75;;;2.53;;
51236;SDS011;37312;47.550;18.818;2022-09-03T09:53:31;5.28;;;3.90;;
51236;SDS011;37312;47.550;18.818;2022-09-03T09:55:59;2.65;;;2.45;;
51236;SDS011;37312;47.550;18.818;2022-09-03T09:58:27;8.82;;;3.53;;
51236;SDS011;37312;47.550;18.818;2022-09-03T10:00:59;5.07;;;3.60;;
51236;SDS011;37312;47.550;18.818;2022-09-03T10:03:39;3.80;;;3.50;;
51236;SDS011;37312;47.550;18.818;2022-09-03T10:06:14;4.70;;;2.90;;
51236;SDS011;37312;47.550;18.818;2022-09-03T10:09:12;5.25;;;3.12;;
51236;SDS011;37312;47.550;18.818;2022-09-03T10:11:42;2.80;;;2.60;;
51236;SDS011;37312;47.550;18.818;2022-09-03T10:14:30;6.30;;;2.50;;
51236;SDS011;37312;47.550;18.818;2022-09-03T10:17:04;4.35;;;2.70;;
51236;SDS011;37312;47.550;18.818;2022-09-03T10:25:45;3.25;;;3.05;;
51236;SDS011;37312;47.550;18.818;2022-09-03T10:28:23;2.58;;;2.37;;
51236;SDS011;37312;47.550;18.818;2022-09-03T10:33:53;2.78;;;2.58;;
51236;SDS011;37312;47.550;18.818;2022-09-03T10:36:24;3.10;;;2.90;;
51236;SDS011;37312;47.550;18.818;2022-09-03T10:41:37;3.12;;;2.47;;
51236;SDS011;37312;47.550;18.818;2022-09-03T10:55:06;6.18;;;3.20;;
51236;SDS011;37312;47.550;18.818;2022-09-03T11:00:21;3.62;;;2.50;;
51236;SDS011;37312;47.550;18.818;2022-09-03T11:02:53;9.50;;;2.50;;
51236;SDS011;37312;47.550;18.818;2022-09-03T11:05:33;5.12;;;2.22;;
51236;SDS011;37312;47.550;18.818;2022-09-03T11:11:20;8.13;;;2.83;;
51236;SDS011;37312;47.550;18.818;2022-09-03T11:13:57;5.40;;;2.47;;
51236;SDS011;37312;47.550;18.818;2022-09-03T11:16:37;2.95;;;2.67;;
51236;SDS011;37312;47.550;18.818;2022-09-03T11:19:08;4.25;;;3.17;;
51236;SDS011;37312;47.550;18.818;2022-09-03T11:21:37;6.85;;;2.37;;
51236;SDS011;37312;47.550;18.818;2022-09-03T11:24:13;2.83;;;2.15;;
51236;SDS011;37312;47.550;18.818;2022-09-03T11:26:46;3.60;;;2.28;;
51236;SDS011;37312;47.550;18.818;2022-09-03T11:32:17;4.62;;;2.03;;
51236;SDS011;37312;47.550;18.818;2022-09-03T11:34:52;3.45;;;2.17;;
51236;SDS011;37312;47.550;18.818;2022-09-03T11:37:23;3.22;;;2.65;;
51236;SDS011;37312;47.550;18.818;2022-09-03T11:40:04;2.40;;;1.80;;
51236;SDS011;37312;47.550;18.818;2022-09-03T11:42:41;2.67;;;2.25;;
51236;SDS011;37312;47.550;18.818;2022-09-03T11:47:43;2.37;;;2.12;;
51236;SDS011;37312;47.550;18.818;2022-09-03T11:50:24;2.65;;;2.15;;
51236;SDS011;37312;47.550;18.818;2022-09-03T11:52:52;2.53;;;1.98;;
51236;SDS011;37312;47.550;18.818;2022-09-03T11:55:25;2.90;;;2.58;;
51236;SDS011;37312;47.550;18.818;2022-09-03T11:57:51;2.62;;;2.42;;
51236;SDS011;37312;47.550;18.818;2022-09-03T12:00:17;2.03;;;1.73;;
51236;SDS011;37312;47.550;18.818;2022-09-03T12:02:47;2.15;;;1.95;;
51236;SDS011;37312;47.550;18.818;2022-09-03T12:05:23;2.25;;;1.85;;
51236;SDS011;37312;47.550;18.818;2022-09-03T12:07:55;4.25;;;2.25;;
51236;SDS011;37312;47.550;18.818;2022-09-03T12:18:33;2.80;;;1.92;;
51236;SDS011;37312;47.550;18.818;2022-09-03T12:21:03;2.50;;;2.30;;
51236;SDS011;37312;47.550;18.818;2022-09-03T12:23:32;3.05;;;2.30;;
51236;SDS011;37312;47.550;18.818;2022-09-03T12:26:01;2.03;;;1.90;;
51236;SDS011;37312;47.550;18.818;2022-09-03T12:28:30;6.37;;;1.95;;
51236;SDS011;37312;47.550;18.818;2022-09-03T12:31:07;1.55;;;1.45;;
51236;SDS011;37312;47.550;18.818;2022-09-03T12:33:44;1.67;;;1.58;;
51236;SDS011;37312;47.550;18.818;2022-09-03T12:36:12;1.90;;;1.77;;
51236;SDS011;37312;47.550;18.818;2022-09-03T12:38:38;3.87;;;2.28;;
51236;SDS011;37312;47.550;18.818;2022-09-03T12:41:04;6.62;;;2.40;;
51236;SDS011;37312;47.550;18.818;2022-09-03T12:43:48;2.28;;;2.17;;
51236;SDS011;37312;47.550;18.818;2022-09-03T12:46:16;3.50;;;2.80;;
51236;SDS011;37312;47.550;18.818;2022-09-03T12:51:21;2.42;;;2.17;;
51236;SDS011;37312;47.550;18.818;2022-09-03T12:53:48;2.62;;;1.85;;
51236;SDS011;37312;47.550;18.818;2022-09-03T12:56:20;1.90;;;1.80;;
51236;SDS011;37312;47.550;18.818;2022-09-03T12:58:52;3.00;;;1.77;;
51236;SDS011;37312;47.550;18.818;2022-09-03T13:01:30;2.95;;;1.48;;
51236;SDS011;37312;47.550;18.818;2022-09-03T13:04:02;1.80;;;1.70;;
51236;SDS011;37312;47.550;18.818;2022-09-03T13:06:45;1.70;;;1.60;;
51236;SDS011;37312;47.550;18.818;2022-09-03T13:09:19;4.47;;;1.85;;
51236;SDS011;37312;47.550;18.818;2022-09-03T13:11:48;1.70;;;1.37;;
51236;SDS011;37312;47.550;18.818;2022-09-03T13:14:16;2.22;;;2.03;;
51236;SDS011;37312;47.550;18.818;2022-09-03T13:30:58;3.42;;;2.60;;
51236;SDS011;37312;47.550;18.818;2022-09-03T13:36:00;2.55;;;2.35;;
51236;SDS011;37312;47.550;18.818;2022-09-03T13:47:10;2.33;;;2.12;;
51236;SDS011;37312;47.550;18.818;2022-09-03T13:49:50;2.05;;;1.95;;
51236;SDS011;37312;47.550;18.818;2022-09-03T13:52:44;2.20;;;1.95;;
51236;SDS011;37312;47.550;18.818;2022-09-03T13:55:32;3.08;;;2.03;;
51236;SDS011;37312;47.550;18.818;2022-09-03T14:00:45;1.87;;;1.67;;
51236;SDS011;37312;47.550;18.818;2022-09-03T14:16:58;2.70;;;1.50;;
51236;SDS011;37312;47.550;18.818;2022-09-03T14:22:16;1.80;;;1.70;;
51236;SDS011;37312;47.550;18.818;2022-09-03T14:24:54;1.55;;;1.45;;
51236;SDS011;37312;47.550;18.818;2022-09-03T14:27:26;1.40;;;1.30;;
51236;SDS011;37312;47.550;18.818;2022-09-03T14:30:16;3.70;;;1.67;;
51236;SDS011;37312;47.550;18.818;2022-09-03T14:35:55;3.83;;;1.98;;
51236;SDS011;37312;47.550;18.818;2022-09-03T14:46:59;1.83;;;1.62;;
51236;SDS011;37312;47.550;18.818;2022-09-03T14:52:39;3.87;;;1.52;;
51236;SDS011;37312;47.550;18.818;2022-09-03T15:00:59;3.97;;;2.42;;
51236;SDS011;37312;47.550;18.818;2022-09-03T15:06:50;1.80;;;1.15;;
51236;SDS011;37312;47.550;18.818;2022-09-03T15:12:17;1.35;;;1.20;;
51236;SDS011;37312;47.550;18.818;2022-09-03T15:19:56;2.08;;;1.75;;
51236;SDS011;37312;47.550;18.818;2022-09-03T15:36:45;3.08;;;1.80;;
51236;SDS011;37312;47.550;18.818;2022-09-03T15:39:22;3.55;;;1.30;;
51236;SDS011;37312;47.550;18.818;2022-09-03T15:41:56;1.62;;;1.52;;
51236;SDS011;37312;47.550;18.818;2022-09-03T15:44:24;1.60;;;1.50;;
51236;SDS011;37312;47.550;18.818;2022-09-03T15:46:56;6.60;;;1.77;;
51236;SDS011;37312;47.550;18.818;2022-09-03T15:49:46;1.40;;;1.33;;
51236;SDS011;37312;47.550;18.818;2022-09-03T15:52:29;1.20;;;1.08;;
51236;SDS011;37312;47.550;18.818;2022-09-03T16:03:10;2.40;;;1.58;;
51236;SDS011;37312;47.550;18.818;2022-09-03T16:05:45;3.60;;;1.65;;
51236;SDS011;37312;47.550;18.818;2022-09-03T16:08:19;2.42;;;2.17;;
51236;SDS011;37312;47.550;18.818;2022-09-03T16:10:58;2.60;;;2.22;;
51236;SDS011;37312;47.550;18.818;2022-09-03T16:19:05;3.67;;;2.60;;
51236;SDS011;37312;47.550;18.818;2022-09-03T16:21:53;4.90;;;2.17;;
51236;SDS011;37312;47.550;18.818;2022-09-03T16:27:34;2.25;;;2.15;;
51236;SDS011;37312;47.550;18.818;2022-09-03T16:30:08;1.90;;;1.80;;
51236;SDS011;37312;47.550;18.818;2022-09-03T16:32:42;7.07;;;2.70;;
51236;SDS011;37312;47.550;18.818;2022-09-03T16:35:30;2.90;;;2.55;;
51236;SDS011;37312;47.550;18.818;2022-09-03T16:48:31;3.17;;;2.03;;
51236;SDS011;37312;47.550;18.818;2022-09-03T17:11:17;3.53;;;2.20;;
51236;SDS011;37312;47.550;18.818;2022-09-03T17:13:53;2.33;;;2.12;;
51236;SDS011;37312;47.550;18.818;2022-09-03T17:19:24;2.80;;;2.60;;
51236;SDS011;37312;47.550;18.818;2022-09-03T17:22:09;5.55;;;2.72;;
51236;SDS011;37312;47.550;18.818;2022-09-03T17:24:43;4.78;;;2.75;;
51236;SDS011;37312;47.550;18.818;2022-09-03T17:27:42;3.17;;;2.83;;
51236;SDS011;37312;47.550;18.818;2022-09-03T17:30:20;9.27;;;2.83;;
51236;SDS011;37312;47.550;18.818;2022-09-03T17:35:34;4.05;;;2.45;;
51236;SDS011;37312;47.550;18.818;2022-09-03T17:43:47;3.75;;;3.00;;
51236;SDS011;37312;47.550;18.818;2022-09-03T17:49:07;7.32;;;3.47;;
51236;SDS011;37312;47.550;18.818;2022-09-03T17:51:42;8.32;;;3.30;;
51236;SDS011;37312;47.550;18.818;2022-09-03T18:02:38;12.20;;;4.87;;
51236;SDS011;37312;47.550;18.818;2022-09-03T18:05:17;5.53;;;4.95;;
51236;SDS011;37312;47.550;18.818;2022-09-03T18:07:51;5.37;;;4.87;;
51236;SDS011;37312;47.550;18.818;2022-09-03T18:10:26;6.55;;;4.50;;
51236;SDS011;37312;47.550;18.818;2022-09-03T18:13:13;7.80;;;5.10;;
51236;SDS011;37312;47.550;18.818;2022-09-03T18:15:48;7.53;;;5.00;;
51236;SDS011;37312;47.550;18.818;2022-09-03T18:18:26;7.20;;;6.18;;
51236;SDS011;37312;47.550;18.818;2022-09-03T18:20:57;5.82;;;5.30;;
51236;SDS011;37312;47.550;18.818;2022-09-03T18:27:00;4.55;;;4.15;;
51236;SDS011;37312;47.550;18.818;2022-09-03T18:30:06;4.87;;;4.35;;
51236;SDS011;37312;47.550;18.818;2022-09-03T18:32:51;5.30;;;4.68;;
51236;SDS011;37312;47.550;18.818;2022-09-03T18:35:36;5.57;;;3.12;;
51236;SDS011;37312;47.550;18.818;2022-09-03T18:38:25;4.57;;;4.12;;
51236;SDS011;37312;47.550;18.818;2022-09-03T18:50:20;3.83;;;3.53;;
51236;SDS011;37312;47.550;18.818;2022-09-03T18:59:17;4.68;;;4.18;;
51236;SDS011;37312;47.550;18.818;2022-09-03T19:12:31;8.55;;;4.93;;
51236;SDS011;37312;47.550;18.818;2022-09-03T19:15:33;6.93;;;4.45;;
51236;SDS011;37312;47.550;18.818;2022-09-03T19:18:44;6.28;;;4.72;;
51236;SDS011;37312;47.550;18.818;2022-09-03T19:21:48;4.75;;;4.35;;
51236;SDS011;37312;47.550;18.818;2022-09-03T19:24:37;7.53;;;4.03;;
51236;SDS011;37312;47.550;18.818;2022-09-03T19:33:33;7.03;;;4.32;;
51236;SDS011;37312;47.550;18.818;2022-09-03T19:48:51;5.12;;;3.78;;
51236;SDS011;37312;47.550;18.818;2022-09-03T19:52:00;4.80;;;4.40;;
51236;SDS011;37312;47.550;18.818;2022-09-03T19:54:51;5.05;;;4.55;;
51236;SDS011;37312;47.550;18.818;2022-09-03T19:57:39;4.35;;;4.05;;
51236;SDS011;37312;47.550;18.818;2022-09-03T20:00:26;4.85;;;4.28;;
51236;SDS011;37312;47.550;18.818;2022-09-03T20:03:12;3.72;;;3.45;;
51236;SDS011;37312;47.550;18.818;2022-09-03T20:05:58;4.50;;;4.10;;
51236;SDS011;37312;47.550;18.818;2022-09-03T20:08:46;3.87;;;3.47;;
51236;SDS011;37312;47.550;18.818;2022-09-03T20:11:32;3.83;;;3.53;;
51236;SDS011;37312;47.550;18.818;2022-09-03T20:14:00;3.92;;;3.62;;
51236;SDS011;37312;47.550;18.818;2022-09-03T20:16:40;4.75;;;4.10;;
51236;SDS011;37312;47.550;18.818;2022-09-03T20:19:17;4.07;;;3.75;;
51236;SDS011;37312;47.550;18.818;2022-09-03T20:27:36;8.15;;;4.25;;
51236;SDS011;37312;47.550;18.818;2022-09-03T20:30:21;4.97;;;4.50;;
51236;SDS011;37312;47.550;18.818;2022-09-03T20:35:24;4.43;;;4.00;;
51236;SDS011;37312;47.550;18.818;2022-09-03T20:41:02;4.82;;;3.80;;
51236;SDS011;37312;47.550;18.818;2022-09-03T20:43:37;4.85;;;4.40;;
51236;SDS011;37312;47.550;18.818;2022-09-03T20:46:21;7.10;;;4.65;;
51236;SDS011;37312;47.550;18.818;2022-09-03T20:49:19;4.78;;;4.15;;
51236;SDS011;37312;47.550;18.818;2022-09-03T20:52:00;6.72;;;5.03;;
51236;SDS011;37312;47.550;18.818;2022-09-03T20:54:36;5.47;;;5.00;;
51236;SDS011;37312;47.550;18.818;2022-09-03T20:57:17;6.20;;;3.87;;
51236;SDS011;37312;47.550;18.818;2022-09-03T21:00:03;3.95;;;3.75;;
51236;SDS011;37312;47.550;18.818;2022-09-03T21:10:33;5.45;;;4.97;;
51236;SDS011;37312;47.550;18.818;2022-09-03T21:13:29;7.78;;;5.80;;
51236;SDS011;37312;47.550;18.818;2022-09-03T21:19:19;7.05;;;6.45;;
51236;SDS011;37312;47.550;18.818;2022-09-03T21:22:01;9.15;;;7.45;;
51236;SDS011;37312;47.550;18.818;2022-09-03T21:25:22;6.80;;;6.25;;
51236;SDS011;37312;47.550;18.818;2022-09-03T21:27:58;8.77;;;6.75;;
51236;SDS011;37312;47.550;18.818;2022-09-03T21:30:27;8.07;;;7.32;;